AirNav   Everest Fuels
 
 1273 users online  

82NH Summit Meadow Heliport
Peterborough, New Hampshire, USA

GOING TO PETERBOROUGH?


FAA INFORMATION EFFECTIVE 30 JANUARY 2020

Location

FAA Identifier: 82NH
Lat/Long: 42-53-46.5600N 071-54-54.6000W
42-53.776000N 071-54.910000W
42.8962667,-71.9151667
(estimated)
Elevation: 1018 ft. / 310 m (estimated)
From city: 2 miles NE of PETERBOROUGH, NH
Time zone: UTC -5 (UTC -4 during Daylight Saving Time)
Zip code: 03458

Heliport Operations

Heliport use: Private use. Permission required prior to landing
Activation date: 05/2009
Control tower: no
ARTCC: BOSTON CENTER
FSS: BANGOR FLIGHT SERVICE STATION
Attendance: UNATNDD
Wind indicator: lighted
Segmented circle: no
Landing fee: yes

Heliport Communications

WX ASOS at AFN (7 nm SW): 135.875 (603-532-6195)
WX AWOS-3PT at EEN (16 nm W): 119.025 (603-358-6424)
WX AWOS-3PT at ASH (19 nm E): 125.1 (603-578-0473)

Nearby radio navigation aids

VOR radial/distance  VOR name  Freq  Var
EENr084/17.7KEENE VORTAC109.4014W
GDMr031/21.9GARDNER VOR/DME110.6014W
MHTr289/24.0MANCHESTER VOR/DME114.4015W
CONr232/24.5CONCORD VOR/DME112.9015W
LWMr300/37.3LAWRENCE VOR/DME112.5015W

 
NDB name  Hdg/Dist  Freq  Var  ID
CLAREMONT161/34.723316WCNH -.-. -. ....

Heliport Services

Runway Information

Helipad H1

Dimensions: 20 x 20 ft. / 6 x 6 m
Surface: turf
Traffic pattern: leftleft

Heliport Ownership and Management from official FAA records

Ownership: Privately-owned
Owner: ROBERT FINLAY
20 ARMORY RD
MILFORD, NH 03055
Phone 603-672-0300
Manager: ROBERT FINLAY
382 SANDHILL RD
PETERBOROUGH, NH 03458
Phone 603-385-1542

Additional Remarks

FOR CD CTC BOSTON ARTCC AT 603-879-6859.

Instrument Procedures

There are no published instrument procedures at 82NH.

Some nearby airports with instrument procedures:

KAFN - Jaffrey Airport-Silver Ranch (7 nm SW)
KEEN - Dillant-Hopkins Airport (16 nm W)
KASH - Boire Field Airport (19 nm E)
KMHT - Manchester Airport (21 nm E)
KGDM - Gardner Municipal Airport (21 nm S)
 
Loc | Ops | Rwys | IFR | FBO | Links
Com | Nav | Svcs | Stats | Notes
Aerial photo
No photo
 
Sectional chart

 
Airport distance calculator
Flying to Summit Meadow Heliport? Find the distance to fly.

From to 82NH

Sunrise and sunset
Times for 17-Feb-2020
 Local
(UTC-5)
 Zulu
(UTC)
Morning civil twilight06:1411:14
Sunrise06:4311:43
Sunset17:2022:20
Evening civil twilight17:4922:49

Current date and time
Zulu (UTC)  17-Feb-2020 15:32:40
Local (UTC-5)  17-Feb-2020 10:32:40
 
METAR
KAFN 
7nm SW 
171452Z AUTO 00000KT 10SM BKN038 02/M08 A3016 RMK AO2 SLP230 T00171078 51020
KEEN 
15nm W 
171456Z AUTO 03004KT 10SM BKN043 BKN050 02/M06 A3020 RMK AO2 SLP237 T00171061 51017 FZRANO $
KASH 
19nm SE 
171456Z 29014G19KT 10SM SCT049 03/M07 A3020 RMK AO2 SLP233 T00331072 51019
TAF
KMHT 
21nm E 
171132Z 1712/1812 VRB03KT P6SM FEW150 FM171400 30005KT P6SM SKC FM171800 31008G15KT P6SM FEW040 FM172300 VRB03KT P6SM FEW150
KCON 
26nm NE 
171132Z 1712/1812 VRB03KT P6SM SCT150 FM171400 30005KT P6SM SKC FM171800 31008G15KT P6SM FEW040 FM172300 VRB04KT P6SM SKC
NOTAMs
Click for the latest NOTAMs
NOTAMs are issued by the DoD/FAA and will open in a separate window not controlled by AirNav.

 

 
 

Would you like to see your business listed on this page?

 If your business provides an interesting product or service to pilots, flight crews, aircraft, or users of the Summit Meadow Heliport, you should consider listing it here.  To start the listing process, click on the button below
 
Add a business
 

Other Pages about Summit Meadow Heliport

Update a link
 
Copyright © AirNav, LLC. All rights reserved. Privacy Policy  Contact